TimeCDT,TemperatureF,Dew PointF,Humidity,Sea Level PressureIn,VisibilityMPH,Wind Direction,Wind SpeedMPH,Gust SpeedMPH,PrecipitationIn,Events,Conditions,WindDirDegrees,DateUTC
12:15 AM,72.5,67.5,84,30.03,10.0,Calm,Calm,-,N/A,,Clear,0,2013-07-15 05:15:00
12:35 AM,71.8,67.5,86,30.03,10.0,Calm,Calm,-,N/A,,Clear,0,2013-07-15 05:35:00
12:55 AM,71.2,67.5,88,30.03,10.0,Calm,Calm,-,N/A,,Clear,0,2013-07-15 05:55:00
1:15 AM,71.8,67.3,86,30.02,10.0,Calm,Calm,-,N/A,,Clear,0,2013-07-15 06:15:00
1:35 AM,71.6,67.5,87,30.02,10.0,Calm,Calm,-,N/A,,Clear,0,2013-07-15 06:35:00
1:55 AM,71.6,67.6,87,30.02,10.0,Calm,Calm,-,N/A,,Clear,0,2013-07-15 06:55:00
2:15 AM,71.6,67.8,88,30.02,10.0,Calm,Calm,-,N/A,,Clear,0,2013-07-15 07:15:00
2:35 AM,71.4,68.0,89,30.02,10.0,Calm,Calm,-,N/A,,Clear,0,2013-07-15 07:35:00
2:55 AM,71.2,68.0,89,30.02,10.0,Calm,Calm,-,N/A,,Clear,0,2013-07-15 07:55:00
3:15 AM,71.6,68.2,89,30.02,10.0,Calm,Calm,-,N/A,,Clear,0,2013-07-15 08:15:00
3:35 AM,71.2,68.0,89,30.02,10.0,Calm,Calm,-,N/A,,Clear,0,2013-07-15 08:35:00
3:55 AM,71.1,68.0,90,30.02,10.0,Calm,Calm,-,N/A,,Clear,0,2013-07-15 08:55:00
4:15 AM,70.9,68.0,91,30.03,10.0,Calm,Calm,-,N/A,,Clear,0,2013-07-15 09:15:00
4:35 AM,70.9,68.0,91,30.04,10.0,Calm,Calm,-,N/A,,Clear,0,2013-07-15 09:35:00
4:55 AM,70.7,68.0,91,30.05,10.0,Calm,Calm,-,N/A,,Clear,0,2013-07-15 09:55:00
5:15 AM,70.5,67.8,91,30.05,7.0,Calm,Calm,-,N/A,,Clear,0,2013-07-15 10:15:00
5:35 AM,70.7,68.0,91,30.06,10.0,Calm,Calm,-,N/A,,Clear,0,2013-07-15 10:35:00
5:55 AM,70.3,67.5,91,30.06,7.0,Calm,Calm,-,N/A,,Clear,0,2013-07-15 10:55:00
6:15 AM,70.3,67.5,91,30.07,7.0,Calm,Calm,-,N/A,,Clear,0,2013-07-15 11:15:00
6:35 AM,70.7,68.0,91,30.07,7.0,Calm,Calm,-,N/A,,Clear,0,2013-07-15 11:35:00
6:55 AM,71.6,68.2,89,30.09,7.0,Calm,Calm,-,N/A,,Clear,0,2013-07-15 11:55:00
7:15 AM,73.2,68.9,86,30.09,10.0,Calm,Calm,-,N/A,,Clear,0,2013-07-15 12:15:00
7:35 AM,74.8,69.3,83,30.10,10.0,Calm,Calm,-,N/A,,Clear,0,2013-07-15 12:35:00
7:55 AM,75.7,69.8,82,30.11,10.0,Calm,Calm,-,N/A,,Clear,0,2013-07-15 12:55:00
8:15 AM,77.4,70.2,78,30.11,10.0,Calm,Calm,-,N/A,,Clear,0,2013-07-15 13:15:00
8:35 AM,79.0,70.2,74,30.12,10.0,Calm,Calm,-,N/A,,Clear,0,2013-07-15 13:35:00
8:55 AM,80.8,71.1,72,30.12,10.0,Calm,Calm,-,N/A,,Clear,0,2013-07-15 13:55:00
9:15 AM,83.1,71.8,68,30.13,10.0,Calm,Calm,-,N/A,,Clear,0,2013-07-15 14:15:00
9:35 AM,83.8,72.5,69,30.13,10.0,Calm,Calm,-,N/A,,Clear,0,2013-07-15 14:35:00
9:55 AM,84.7,73.4,69,30.13,10.0,Calm,Calm,-,N/A,,Clear,0,2013-07-15 14:55:00
10:15 AM,84.7,73.6,69,30.13,10.0,Calm,Calm,-,N/A,,Scattered Clouds,0,2013-07-15 15:15:00
10:35 AM,87.1,73.8,64,30.13,10.0,Calm,Calm,-,N/A,,Mostly Cloudy,0,2013-07-15 15:35:00
10:55 AM,88.2,73.2,61,30.12,10.0,East,6.9,-,N/A,,Scattered Clouds,100,2013-07-15 15:55:00
11:15 AM,87.8,71.2,58,30.12,10.0,Calm,Calm,-,N/A,,Mostly Cloudy,0,2013-07-15 16:15:00
11:35 AM,88.0,71.1,57,30.12,10.0,Calm,Calm,-,N/A,,Mostly Cloudy,0,2013-07-15 16:35:00
11:55 AM,90.5,69.8,50,30.12,10.0,ESE,6.9,-,N/A,,Scattered Clouds,110,2013-07-15 16:55:00
12:15 PM,89.6,70.0,52,30.11,10.0,Calm,Calm,-,N/A,,Scattered Clouds,0,2013-07-15 17:15:00
12:35 PM,91.4,70.7,51,30.11,10.0,SSE,4.6,-,N/A,,Scattered Clouds,160,2013-07-15 17:35:00
12:55 PM,89.8,70.7,53,30.11,10.0,Calm,Calm,-,N/A,,Clear,0,2013-07-15 17:55:00
1:15 PM,91.2,68.9,48,30.10,10.0,Calm,Calm,-,N/A,,Clear,0,2013-07-15 18:15:00
1:35 PM,91.6,69.8,49,30.10,10.0,East,3.5,-,N/A,,Scattered Clouds,90,2013-07-15 18:35:00
1:55 PM,92.8,69.4,46,30.09,10.0,Calm,Calm,-,N/A,,Scattered Clouds,0,2013-07-15 18:55:00
2:15 PM,92.3,69.3,47,30.08,10.0,East,4.6,-,N/A,,Scattered Clouds,90,2013-07-15 19:15:00
2:35 PM,92.1,69.1,47,30.09,10.0,Calm,Calm,-,N/A,,Scattered Clouds,0,2013-07-15 19:35:00
2:55 PM,91.8,69.6,48,30.09,10.0,East,3.5,-,N/A,,Mostly Cloudy,90,2013-07-15 19:55:00
3:15 PM,90.5,69.6,50,30.08,10.0,Calm,Calm,-,N/A,,Mostly Cloudy,0,2013-07-15 20:15:00
3:35 PM,90.7,70.0,50,30.08,10.0,Calm,Calm,-,N/A,,Mostly Cloudy,0,2013-07-15 20:35:00
3:55 PM,92.1,70.0,48,30.07,10.0,East,4.6,-,N/A,,Scattered Clouds,80,2013-07-15 20:55:00
4:15 PM,90.7,70.0,50,30.07,10.0,Calm,Calm,-,N/A,,Mostly Cloudy,0,2013-07-15 21:15:00
4:35 PM,91.2,71.1,51,30.07,10.0,Calm,Calm,-,N/A,,Mostly Cloudy,0,2013-07-15 21:35:00
4:55 PM,91.8,70.0,49,30.07,10.0,East,4.6,-,N/A,,Scattered Clouds,100,2013-07-15 21:55:00
5:15 PM,93.6,69.4,45,30.07,10.0,ESE,6.9,-,N/A,,Clear,110,2013-07-15 22:15:00
5:35 PM,93.7,70.0,46,30.07,10.0,ESE,4.6,-,N/A,,Clear,110,2013-07-15 22:35:00
5:55 PM,89.6,70.3,53,30.07,10.0,Calm,Calm,-,N/A,,Clear,0,2013-07-15 22:55:00
6:15 PM,88.9,70.7,55,30.07,10.0,Calm,Calm,-,N/A,,Clear,0,2013-07-15 23:15:00
6:35 PM,90.3,71.1,53,30.07,10.0,Calm,Calm,-,N/A,,Clear,0,2013-07-15 23:35:00
6:55 PM,88.9,71.1,55,30.07,10.0,Calm,Calm,-,N/A,,Clear,0,2013-07-15 23:55:00
7:15 PM,87.4,72.0,60,30.08,10.0,Calm,Calm,-,N/A,,Clear,0,2013-07-16 00:15:00
7:35 PM,86.9,71.6,60,30.08,10.0,Calm,Calm,-,N/A,,Clear,0,2013-07-16 00:35:00
7:55 PM,85.8,71.6,62,30.09,10.0,Calm,Calm,-,N/A,,Clear,0,2013-07-16 00:55:00
8:15 PM,83.5,72.7,70,30.09,10.0,Calm,Calm,-,N/A,,Clear,0,2013-07-16 01:15:00
8:35 PM,82.0,72.5,73,30.10,10.0,Calm,Calm,-,N/A,,Clear,0,2013-07-16 01:35:00
8:55 PM,81.1,72.5,75,30.11,10.0,Calm,Calm,-,N/A,,Clear,0,2013-07-16 01:55:00
9:15 PM,79.9,72.9,79,30.12,10.0,Calm,Calm,-,N/A,,Clear,0,2013-07-16 02:15:00
9:35 PM,79.7,73.0,80,30.13,10.0,Calm,Calm,-,N/A,,Clear,0,2013-07-16 02:35:00
9:55 PM,79.2,73.0,81,30.13,10.0,Calm,Calm,-,N/A,,Scattered Clouds,0,2013-07-16 02:55:00
10:15 PM,79.2,73.2,82,30.14,10.0,Calm,Calm,-,N/A,,Scattered Clouds,0,2013-07-16 03:15:00
10:35 PM,79.0,73.2,82,30.14,10.0,Calm,Calm,-,N/A,,Scattered Clouds,0,2013-07-16 03:35:00
10:55 PM,78.4,72.9,83,30.14,10.0,Calm,Calm,-,N/A,,Scattered Clouds,0,2013-07-16 03:55:00
11:15 PM,78.3,73.0,84,30.15,10.0,Calm,Calm,-,N/A,Thunderstorm,Scattered Clouds,0,2013-07-16 04:15:00
11:35 PM,76.8,69.4,78,30.15,2.5,Calm,Calm,-,0.17,Rain-Thunderstorm,Heavy Thunderstorms and Rain,0,2013-07-16 04:35:00
11:55 PM,75.2,72.7,92,30.15,5.0,Calm,Calm,-,0.17,Rain-Thunderstorm,Light Thunderstorms and Rain,0,2013-07-16 04:55:00